createdAt,value
2023-04-29T00:00:11.174Z,1.98
2023-04-29T00:02:40.545Z,2.00
2023-04-29T00:05:07.819Z,1.88
2023-04-29T00:07:34.735Z,2.08
2023-04-29T00:10:01.335Z,1.92
2023-04-29T00:12:30.196Z,2.20
2023-04-29T00:14:57.113Z,1.88
2023-04-29T00:17:23.733Z,2.05
2023-04-29T00:19:50.927Z,2.00
2023-04-29T00:22:17.814Z,2.10
2023-04-29T00:24:44.415Z,2.10
2023-04-29T00:27:11.929Z,2.17
2023-04-29T00:29:38.741Z,2.20
2023-04-29T00:32:05.601Z,2.10
2023-04-29T00:34:32.180Z,2.15
2023-04-29T00:36:58.738Z,1.98
2023-04-29T00:39:25.749Z,2.33
2023-04-29T00:41:53.038Z,2.20
2023-04-29T00:44:20.648Z,2.22
2023-04-29T00:46:47.650Z,2.20
2023-04-29T00:49:15.622Z,2.00
2023-04-29T00:51:43.069Z,2.05
2023-04-29T00:54:10.943Z,2.10
2023-04-29T00:56:37.872Z,1.80
2023-04-29T00:59:04.882Z,2.10
2023-04-29T01:01:31.606Z,1.85
2023-04-29T01:03:58.954Z,2.28
2023-04-29T01:06:57.267Z,2.20
2023-04-29T01:09:27.610Z,2.10
2023-04-29T01:12:03.983Z,1.85
2023-04-29T01:14:32.846Z,2.10
2023-04-29T01:17:01.140Z,2.20
2023-04-29T01:19:46.643Z,49.47
2023-04-29T01:22:14.690Z,97.15
2023-04-29T01:24:41.278Z,72.55
2023-04-29T01:27:16.672Z,56.30
2023-04-29T01:29:56.901Z,43.95
2023-04-29T01:32:34.533Z,38.70
2023-04-29T01:35:33.815Z,31.25
2023-04-29T01:38:18.950Z,25.92
2023-04-29T01:40:56.737Z,24.10
2023-04-29T01:43:28.868Z,21.13
2023-04-29T01:45:57.409Z,21.58
2023-04-29T01:48:24.757Z,19.35
2023-04-29T01:50:51.582Z,19.33
2023-04-29T01:53:18.281Z,17.58
2023-04-29T01:55:46.254Z,17.83
2023-04-29T01:58:16.626Z,16.40
2023-04-29T02:00:53.956Z,17.40
2023-04-29T02:03:20.921Z,17.27
2023-04-29T02:05:51.708Z,16.35
2023-04-29T02:08:18.732Z,15.75
2023-04-29T02:10:56.938Z,15.43
2023-04-29T02:16:11.277Z,15.27
2023-04-29T02:18:42.106Z,14.00
2023-04-29T02:21:09.251Z,13.85
2023-04-29T02:23:36.233Z,14.50
2023-04-29T02:26:05.602Z,13.93
2023-04-29T02:28:33.055Z,13.30
2023-04-29T02:30:59.708Z,13.02
2023-04-29T02:33:26.283Z,12.65
2023-04-29T02:35:52.855Z,12.93
2023-04-29T02:38:19.427Z,12.70
2023-04-29T02:40:46.658Z,12.55
2023-04-29T02:43:14.200Z,12.20
2023-04-29T02:45:40.800Z,11.77
2023-04-29T02:48:07.785Z,11.38
2023-04-29T02:50:34.642Z,11.55
2023-04-29T02:53:03.683Z,11.63
2023-04-29T02:55:30.540Z,11.02
2023-04-29T02:58:02.088Z,10.90
2023-04-29T03:00:28.641Z,10.70
2023-04-29T03:02:55.401Z,10.80
2023-04-29T03:05:22.029Z,10.48
2023-04-29T03:07:48.853Z,10.63
2023-04-29T03:10:15.481Z,10.65
2023-04-29T03:12:42.140Z,9.85
2023-04-29T03:15:10.632Z,10.18
2023-04-29T03:17:37.777Z,10.27
2023-04-29T03:20:05.172Z,10.30
2023-04-29T03:22:34.991Z,9.30
2023-04-29T03:25:01.925Z,9.13
2023-04-29T03:27:29.078Z,9.73
2023-04-29T03:29:55.958Z,9.00
2023-04-29T03:32:22.862Z,8.88
2023-04-29T03:34:50.554Z,8.65
2023-04-29T03:37:37.768Z,8.35
2023-04-29T03:40:22.016Z,8.80
2023-04-29T03:42:49.700Z,8.75
2023-04-29T03:45:17.745Z,8.30
2023-04-29T03:47:44.825Z,8.77
2023-04-29T03:50:11.959Z,8.57
2023-04-29T03:52:39.609Z,8.25
2023-04-29T03:55:12.723Z,7.65
2023-04-29T03:57:42.612Z,8.20
2023-04-29T04:00:11.364Z,8.75
2023-04-29T04:02:45.263Z,8.32
2023-04-29T04:05:12.894Z,8.18
2023-04-29T04:07:42.931Z,7.93
2023-04-29T04:12:56.634Z,7.90
2023-04-29T04:15:23.657Z,7.97
2023-04-29T04:17:50.670Z,7.75
2023-04-29T04:20:17.937Z,7.63
2023-04-29T04:22:44.936Z,7.13
2023-04-29T04:25:19.007Z,7.65
2023-04-29T04:27:45.783Z,7.88
2023-04-29T04:30:22.484Z,7.15
2023-04-29T04:32:49.779Z,7.50
2023-04-29T04:35:16.585Z,6.90
2023-04-29T04:37:43.187Z,6.70
2023-04-29T04:40:12.042Z,6.97
2023-04-29T04:42:56.861Z,7.13
2023-04-29T04:45:23.676Z,6.45
2023-04-29T04:47:53.125Z,6.82
2023-04-29T04:50:22.459Z,6.63
2023-04-29T04:52:50.280Z,6.18
2023-04-29T04:55:37.232Z,6.40
2023-04-29T04:58:03.971Z,6.05
2023-04-29T05:00:30.714Z,6.38
2023-04-29T05:02:58.047Z,5.97
2023-04-29T05:05:25.034Z,5.82
2023-04-29T05:07:51.654Z,5.78
2023-04-29T05:10:26.471Z,5.55
2023-04-29T05:12:55.103Z,5.90
2023-04-29T05:15:21.741Z,5.63
2023-04-29T05:17:51.172Z,5.70
2023-04-29T05:20:17.840Z,5.70
2023-04-29T05:22:44.622Z,5.82
2023-04-29T05:25:13.207Z,5.43
2023-04-29T05:27:40.471Z,5.45
2023-04-29T05:30:11.537Z,5.50
2023-04-29T05:32:38.178Z,5.30
2023-04-29T05:35:07.706Z,5.28
2023-04-29T05:37:35.220Z,5.40
2023-04-29T05:40:17.008Z,5.45
2023-04-29T05:42:43.788Z,5.22
2023-04-29T05:45:12.478Z,4.80
2023-04-29T05:47:39.173Z,5.60
2023-04-29T05:50:06.504Z,5.40
2023-04-29T05:52:33.138Z,4.88
2023-04-29T05:54:59.753Z,5.15
2023-04-29T05:57:26.371Z,5.35
2023-04-29T05:59:55.315Z,6.30
2023-04-29T06:02:22.693Z,9.50
2023-04-29T06:04:50.053Z,8.00
2023-04-29T06:07:36.787Z,7.10
2023-04-29T06:10:11.683Z,8.35
2023-04-29T06:12:42.124Z,10.13
2023-04-29T06:15:09.031Z,8.27
2023-04-29T06:17:35.738Z,7.55
2023-04-29T06:20:02.341Z,6.43
2023-04-29T06:22:28.929Z,5.97
2023-04-29T06:24:56.185Z,6.03
2023-04-29T06:27:42.451Z,5.68
2023-04-29T06:30:09.816Z,5.72
2023-04-29T06:32:40.896Z,5.25
2023-04-29T06:35:08.321Z,5.00
2023-04-29T06:38:02.301Z,4.97
2023-04-29T06:40:37.780Z,4.78
2023-04-29T06:43:27.974Z,4.60
2023-04-29T06:46:17.763Z,4.80
2023-04-29T06:49:16.552Z,4.35
2023-04-29T06:51:43.229Z,4.25
2023-04-29T06:54:09.873Z,4.90
2023-04-29T06:56:36.548Z,4.57
2023-04-29T06:59:04.480Z,5.00
2023-04-29T07:01:31.202Z,4.90
2023-04-29T07:03:58.102Z,4.38
2023-04-29T07:06:24.962Z,4.30
2023-04-29T07:08:52.886Z,4.80
2023-04-29T07:11:21.215Z,4.43
2023-04-29T07:13:53.326Z,4.20
2023-04-29T07:16:21.983Z,4.50
2023-04-29T07:18:49.448Z,4.60
2023-04-29T07:21:16.045Z,4.25
2023-04-29T07:23:42.854Z,4.40
2023-04-29T07:26:13.709Z,4.63
2023-04-29T07:28:43.567Z,4.60
2023-04-29T07:31:10.947Z,4.18
2023-04-29T07:33:37.605Z,4.60
2023-04-29T07:36:04.749Z,4.40
2023-04-29T07:38:31.318Z,4.07
2023-04-29T07:40:58.081Z,4.20
2023-04-29T07:43:24.719Z,4.32
2023-04-29T07:45:51.678Z,3.97
2023-04-29T07:48:18.550Z,3.97
2023-04-29T07:50:45.761Z,4.38
2023-04-29T07:53:12.420Z,4.07
2023-04-29T07:55:39.076Z,4.00
2023-04-29T07:58:06.355Z,4.20
2023-04-29T08:00:33.474Z,3.97
2023-04-29T08:03:00.213Z,3.92
2023-04-29T08:05:30.584Z,4.20
2023-04-29T08:07:57.548Z,3.75
2023-04-29T08:10:26.117Z,3.78
2023-04-29T08:12:53.057Z,4.10
2023-04-29T08:15:20.279Z,3.97
2023-04-29T08:17:47.144Z,4.13
2023-04-29T08:20:15.124Z,3.90
2023-04-29T08:22:42.530Z,4.15
2023-04-29T08:25:09.552Z,4.40
2023-04-29T08:27:36.142Z,3.92
2023-04-29T08:30:03.048Z,4.03
2023-04-29T08:32:29.692Z,4.32
2023-04-29T08:34:56.682Z,4.13
2023-04-29T08:37:23.273Z,4.22
2023-04-29T08:39:49.890Z,4.30
2023-04-29T08:42:18.587Z,5.00
2023-04-29T08:44:45.532Z,4.78
2023-04-29T08:47:14.040Z,4.47
2023-04-29T08:49:41.629Z,4.18
2023-04-29T08:52:08.380Z,4.50
2023-04-29T08:54:36.185Z,4.07
2023-04-29T08:57:03.369Z,4.25
2023-04-29T08:59:30.618Z,4.18
2023-04-29T09:01:57.523Z,4.32
2023-04-29T09:04:48.743Z,4.22
2023-04-29T09:07:15.370Z,4.68
2023-04-29T09:09:42.320Z,4.43
2023-04-29T09:12:09.398Z,3.80
2023-04-29T09:14:36.725Z,3.78
2023-04-29T09:17:03.340Z,4.38
2023-04-29T09:19:34.808Z,4.20
2023-04-29T09:22:04.604Z,3.60
2023-04-29T09:24:31.729Z,3.67
2023-04-29T09:26:59.218Z,4.05
2023-04-29T09:29:25.986Z,3.90
2023-04-29T09:31:57.691Z,3.88
2023-04-29T09:34:40.808Z,3.72
2023-04-29T09:37:28.017Z,3.70
2023-04-29T09:39:55.156Z,3.92
2023-04-29T09:42:21.833Z,3.55
2023-04-29T09:44:48.606Z,3.80
2023-04-29T09:47:15.228Z,3.58
2023-04-29T09:49:45.396Z,3.85
2023-04-29T09:52:13.894Z,4.00
2023-04-29T09:54:42.000Z,4.00
2023-04-29T09:57:11.348Z,3.63
2023-04-29T09:59:39.692Z,4.00
2023-04-29T10:02:17.794Z,3.78
2023-04-29T10:04:48.713Z,4.05
2023-04-29T10:07:19.794Z,3.92
2023-04-29T10:09:47.992Z,3.90
2023-04-29T10:12:20.363Z,3.72
2023-04-29T10:15:23.797Z,3.60
2023-04-29T10:18:00.299Z,3.55
2023-04-29T10:20:27.304Z,3.80
2023-04-29T10:22:56.503Z,3.70
2023-04-29T10:25:24.680Z,3.65
2023-04-29T10:27:54.637Z,3.58
2023-04-29T10:30:22.553Z,3.40
2023-04-29T10:32:52.133Z,3.83
2023-04-29T10:35:22.813Z,3.40
2023-04-29T10:37:49.918Z,3.30
2023-04-29T10:40:25.166Z,3.80
2023-04-29T10:42:53.149Z,3.42
2023-04-29T10:45:25.019Z,3.15
2023-04-29T10:48:06.718Z,3.20
2023-04-29T10:50:49.490Z,3.40
2023-04-29T10:53:19.327Z,3.58
2023-04-29T10:55:53.962Z,3.40
2023-04-29T10:58:45.937Z,3.20
2023-04-29T11:01:17.229Z,3.50
2023-04-29T11:03:49.222Z,3.40
2023-04-29T11:06:16.715Z,3.45
2023-04-29T11:08:43.453Z,3.90
2023-04-29T11:11:10.453Z,3.53
2023-04-29T11:13:40.559Z,3.30
2023-04-29T11:16:08.147Z,3.60
2023-04-29T11:18:36.571Z,3.55
2023-04-29T11:21:06.349Z,3.58
2023-04-29T11:23:41.659Z,3.67
2023-04-29T11:26:08.416Z,3.83
2023-04-29T11:28:35.399Z,3.63
2023-04-29T11:31:03.755Z,3.50
2023-04-29T11:33:32.613Z,3.30
2023-04-29T11:35:59.587Z,3.78
2023-04-29T11:38:30.386Z,3.50
2023-04-29T11:40:58.013Z,3.50
2023-04-29T11:43:25.226Z,3.60
2023-04-29T11:45:53.229Z,3.40
2023-04-29T11:48:24.586Z,3.30
2023-04-29T11:50:57.917Z,3.40
2023-04-29T11:53:25.445Z,3.35
2023-04-29T11:55:55.648Z,3.10
2023-04-29T11:58:23.201Z,3.30
2023-04-29T12:00:50.175Z,3.08
2023-04-29T12:03:18.444Z,3.58
2023-04-29T12:05:53.436Z,3.10
2023-04-29T12:08:24.052Z,3.33
2023-04-29T12:10:51.888Z,2.97
2023-04-29T12:13:19.603Z,3.05
2023-04-29T12:15:47.639Z,3.20
2023-04-29T12:18:14.688Z,2.97
2023-04-29T12:20:41.335Z,3.20
2023-04-29T12:23:14.422Z,3.17
2023-04-29T12:25:41.740Z,3.45
2023-04-29T12:28:13.021Z,3.17
2023-04-29T12:30:39.629Z,3.40
2023-04-29T12:33:12.354Z,3.22
2023-04-29T12:35:39.137Z,3.28
2023-04-29T12:38:06.416Z,3.42
2023-04-29T12:40:33.894Z,3.08
2023-04-29T12:43:07.356Z,3.17
2023-04-29T12:45:34.632Z,3.35
2023-04-29T12:48:02.506Z,3.70
2023-04-29T12:50:31.551Z,3.67
2023-04-29T12:52:58.745Z,3.90
2023-04-29T12:55:25.962Z,4.32
2023-04-29T12:57:53.369Z,4.20
2023-04-29T13:00:20.832Z,4.20
2023-04-29T13:02:47.911Z,4.70
2023-04-29T13:05:14.715Z,4.63
2023-04-29T13:07:42.092Z,5.07
2023-04-29T13:10:09.432Z,5.25
2023-04-29T13:12:36.128Z,5.55
2023-04-29T13:15:03.520Z,5.47
2023-04-29T13:17:30.116Z,5.65
2023-04-29T13:19:56.765Z,5.20
2023-04-29T13:22:23.373Z,5.53
2023-04-29T13:24:50.127Z,5.78
2023-04-29T13:27:16.764Z,6.10
2023-04-29T13:29:43.379Z,6.07
2023-04-29T13:32:10.540Z,6.38
2023-04-29T13:34:37.266Z,6.22
2023-04-29T13:37:03.830Z,6.18
2023-04-29T13:39:30.489Z,6.35
2023-04-29T13:41:59.248Z,6.13
2023-04-29T13:44:34.264Z,6.28
2023-04-29T13:47:06.331Z,5.68
2023-04-29T13:57:50.096Z,5.32
2023-04-29T13:59:53.375Z,5.10
2023-04-29T14:02:25.024Z,5.38
2023-04-29T14:04:53.230Z,5.25
2023-04-29T14:07:20.593Z,4.72
2023-04-29T14:09:47.153Z,4.85
2023-04-29T14:12:13.770Z,4.63
2023-04-29T14:14:40.476Z,4.63
2023-04-29T14:17:07.254Z,5.22
2023-04-29T14:19:33.842Z,6.03
2023-04-29T14:22:00.395Z,7.10
2023-04-29T14:24:26.984Z,6.30
2023-04-29T14:26:53.663Z,6.32
2023-04-29T14:29:20.634Z,5.80
2023-04-29T14:31:47.431Z,5.60
2023-04-29T14:34:14.230Z,5.03
2023-04-29T14:36:41.174Z,5.18
2023-04-29T14:39:08.449Z,4.72
2023-04-29T14:41:35.037Z,4.53
2023-04-29T14:44:01.603Z,4.53
2023-04-29T14:46:29.163Z,3.95
2023-04-29T14:48:56.199Z,4.05
2023-04-29T14:51:22.824Z,4.53
2023-04-29T14:53:49.648Z,4.40
2023-04-29T14:56:17.739Z,3.55
2023-04-29T14:58:44.444Z,4.13
2023-04-29T15:01:11.670Z,3.50
2023-04-29T15:03:43.660Z,6.32
2023-04-29T15:06:11.782Z,7.53
2023-04-29T15:08:38.573Z,7.05
2023-04-29T15:11:05.314Z,6.50
2023-04-29T15:13:32.250Z,5.88
2023-04-29T15:15:59.295Z,5.85
2023-04-29T15:18:26.449Z,5.15
2023-04-29T15:20:53.895Z,5.10
2023-04-29T15:23:20.721Z,4.72
2023-04-29T15:25:47.591Z,4.88
2023-04-29T15:28:14.232Z,4.72
2023-04-29T15:30:40.944Z,4.55
2023-04-29T15:33:07.742Z,4.22
2023-04-29T15:35:34.811Z,4.25
2023-04-29T15:38:01.623Z,4.15
2023-04-29T15:40:28.282Z,4.10
2023-04-29T15:42:55.230Z,3.80
2023-04-29T15:45:21.901Z,3.95
2023-04-29T15:47:48.644Z,3.58
2023-04-29T15:50:15.577Z,3.78
2023-04-29T15:52:42.246Z,3.55
2023-04-29T15:55:09.082Z,3.58
2023-04-29T15:57:41.167Z,3.83
2023-04-29T16:00:08.889Z,3.80
2023-04-29T16:02:35.872Z,3.58
2023-04-29T16:05:03.132Z,3.60
2023-04-29T16:07:30.576Z,3.10
2023-04-29T16:09:57.229Z,3.63
2023-04-29T16:12:24.000Z,3.33
2023-04-29T16:14:51.150Z,3.50
2023-04-29T16:17:17.818Z,3.42
2023-04-29T16:19:44.728Z,3.30
2023-04-29T16:22:11.470Z,3.05
2023-04-29T16:24:38.294Z,3.15
2023-04-29T16:27:05.044Z,3.30
2023-04-29T16:29:31.722Z,3.20
2023-04-29T16:31:58.483Z,3.10
2023-04-29T16:34:25.203Z,3.00
2023-04-29T16:36:51.976Z,2.70
2023-04-29T16:39:18.755Z,3.08
2023-04-29T16:41:45.443Z,3.15
2023-04-29T16:44:12.671Z,2.70
2023-04-29T16:46:39.633Z,2.85
2023-04-29T16:49:07.178Z,2.30
2023-04-29T16:51:33.985Z,3.10
2023-04-29T16:54:00.730Z,2.90
2023-04-29T16:56:27.613Z,2.83
2023-04-29T16:58:54.464Z,2.85
2023-04-29T17:01:21.431Z,2.80
2023-04-29T17:03:48.394Z,2.83
2023-04-29T17:06:18.267Z,2.80
2023-04-29T17:08:45.545Z,2.40
2023-04-29T17:11:12.412Z,2.90
2023-04-29T17:13:39.064Z,3.00
2023-04-29T17:16:06.727Z,2.85
2023-04-29T17:18:33.443Z,2.88
2023-04-29T17:21:00.182Z,2.70
2023-04-29T17:23:26.886Z,2.95
2023-04-29T17:25:55.445Z,2.85
2023-04-29T17:28:22.304Z,3.30
2023-04-29T17:30:49.205Z,3.10
2023-04-29T17:33:17.435Z,2.88
2023-04-29T17:35:45.243Z,2.97
2023-04-29T17:38:12.203Z,3.03
2023-04-29T17:40:39.011Z,2.58
2023-04-29T17:43:05.644Z,2.80
2023-04-29T17:45:32.355Z,2.78
2023-04-29T17:47:59.267Z,2.70
2023-04-29T17:50:26.128Z,2.83
2023-04-29T17:52:52.739Z,2.70
2023-04-29T17:55:19.657Z,3.00
2023-04-29T17:57:46.389Z,2.70
2023-04-29T18:00:13.700Z,2.80
2023-04-29T18:02:40.544Z,2.60
2023-04-29T18:05:07.468Z,2.90
2023-04-29T18:07:34.133Z,2.50
2023-04-29T18:10:00.803Z,2.70
2023-04-29T18:12:27.463Z,3.17
2023-04-29T18:14:54.186Z,3.25
2023-04-29T18:17:21.122Z,2.72
2023-04-29T18:19:49.534Z,3.03
2023-04-29T18:22:16.356Z,3.10
2023-04-29T18:24:43.103Z,2.95
2023-04-29T18:27:09.882Z,3.05
2023-04-29T18:29:36.528Z,2.60
2023-04-29T18:32:04.400Z,2.78
2023-04-29T18:34:32.386Z,2.90
2023-04-29T18:36:59.009Z,3.08
2023-04-29T18:39:25.640Z,2.70
2023-04-29T18:41:52.281Z,3.03
2023-04-29T18:44:18.933Z,2.97
2023-04-29T18:46:45.682Z,2.80
2023-04-29T18:49:16.383Z,2.90
2023-04-29T18:51:46.637Z,2.90
2023-04-29T18:54:15.350Z,2.70
2023-04-29T18:56:44.580Z,2.70
2023-04-29T18:59:12.870Z,2.60
2023-04-29T19:01:39.600Z,2.72
2023-04-29T19:04:08.583Z,2.72
2023-04-29T19:06:36.661Z,2.50
2023-04-29T19:09:03.702Z,2.55
2023-04-29T19:11:30.327Z,2.75
2023-04-29T19:13:57.313Z,2.58
2023-04-29T19:16:24.309Z,2.45
2023-04-29T19:18:51.141Z,2.50
2023-04-29T19:21:18.422Z,2.50
2023-04-29T19:23:45.125Z,2.65
2023-04-29T19:26:11.750Z,2.67
2023-04-29T19:28:38.692Z,2.72
2023-04-29T19:31:05.514Z,2.58
2023-04-29T19:33:32.622Z,2.60
2023-04-29T19:35:59.297Z,2.53
2023-04-29T19:38:26.092Z,2.42
2023-04-29T19:40:56.692Z,2.70
2023-04-29T19:43:23.557Z,2.55
2023-04-29T19:45:50.462Z,2.50
2023-04-29T19:48:17.293Z,2.47
2023-04-29T19:50:44.041Z,2.75
2023-04-29T19:53:11.552Z,2.70
2023-04-29T19:55:41.438Z,2.60
2023-04-29T19:58:08.229Z,2.42
2023-04-29T20:00:35.255Z,2.40
2023-04-29T20:03:02.410Z,2.50
2023-04-29T20:05:29.126Z,2.42
2023-04-29T20:07:56.005Z,2.95
2023-04-29T20:10:22.805Z,2.78
2023-04-29T20:12:49.525Z,2.63
2023-04-29T20:15:16.502Z,2.50
2023-04-29T20:17:43.224Z,2.85
2023-04-29T20:20:10.623Z,2.67
2023-04-29T20:22:37.578Z,2.53
2023-04-29T20:25:04.476Z,2.80
2023-04-29T20:27:31.140Z,2.58
2023-04-29T20:29:57.961Z,2.88
2023-04-29T20:32:24.776Z,2.80
2023-04-29T20:34:52.352Z,2.45
2023-04-29T20:37:19.889Z,2.72
2023-04-29T20:39:47.292Z,2.97
2023-04-29T20:42:14.373Z,2.65
2023-04-29T20:44:41.172Z,2.35
2023-04-29T20:47:08.011Z,2.78
2023-04-29T20:49:34.633Z,3.17
2023-04-29T20:52:01.960Z,3.00
2023-04-29T20:54:28.675Z,3.28
2023-04-29T20:56:55.282Z,3.05
2023-04-29T20:59:21.891Z,3.15
2023-04-29T21:01:48.771Z,3.30
2023-04-29T21:04:15.727Z,3.03
2023-04-29T21:06:42.531Z,3.08
2023-04-29T21:09:09.282Z,2.83
2023-04-29T21:11:35.959Z,3.00
2023-04-29T21:14:02.598Z,3.00
2023-04-29T21:16:29.293Z,2.97
2023-04-29T21:18:55.917Z,2.65
2023-04-29T21:21:23.373Z,2.90
2023-04-29T21:23:50.056Z,2.70
2023-04-29T21:26:16.720Z,2.90
2023-04-29T21:28:43.517Z,3.08
2023-04-29T21:31:15.996Z,2.78
2023-04-29T21:33:46.263Z,2.70
2023-04-29T21:36:13.443Z,3.05
2023-04-29T21:38:40.152Z,2.97
2023-04-29T21:41:13.575Z,2.78
2023-04-29T21:43:40.179Z,2.83
2023-04-29T21:46:07.701Z,3.03
2023-04-29T21:48:34.467Z,2.92
2023-04-29T21:51:05.306Z,2.92
2023-04-29T21:53:31.992Z,3.00
2023-04-29T21:55:58.671Z,2.72
2023-04-29T21:58:25.360Z,2.83
2023-04-29T22:01:00.919Z,2.70
2023-04-29T22:03:27.792Z,2.97
2023-04-29T22:05:54.513Z,2.13
2023-04-29T22:08:21.271Z,2.70
2023-04-29T22:10:48.057Z,2.83
2023-04-29T22:13:15.384Z,2.40
2023-04-29T22:15:42.197Z,2.83
2023-04-29T22:18:08.966Z,2.50
2023-04-29T22:20:35.733Z,2.70
2023-04-29T22:23:02.485Z,2.38
2023-04-29T22:25:29.127Z,2.60
2023-04-29T22:27:55.944Z,2.80
2023-04-29T22:30:22.592Z,2.38
2023-04-29T22:32:49.391Z,2.38
2023-04-29T22:35:16.287Z,2.40
2023-04-29T22:37:43.031Z,2.75
2023-04-29T22:40:10.963Z,2.22
2023-04-29T22:42:37.553Z,2.53
2023-04-29T22:45:04.675Z,2.25
2023-04-29T22:47:33.915Z,2.30
2023-04-29T22:50:00.802Z,2.20
2023-04-29T22:52:27.566Z,2.35
2023-04-29T22:54:54.191Z,2.40
2023-04-29T22:57:20.924Z,2.08
2023-04-29T22:59:49.238Z,2.67
2023-04-29T23:02:15.989Z,2.22
2023-04-29T23:04:42.688Z,2.25
2023-04-29T23:07:09.454Z,2.45
2023-04-29T23:09:36.080Z,2.25
2023-04-29T23:12:02.807Z,2.00
2023-04-29T23:14:29.605Z,2.20
2023-04-29T23:16:56.345Z,2.10
2023-04-29T23:19:23.032Z,2.33
2023-04-29T23:21:49.648Z,2.08
2023-04-29T23:24:16.309Z,2.17
2023-04-29T23:26:43.092Z,2.10
2023-04-29T23:29:09.812Z,1.92
2023-04-29T23:31:36.504Z,2.05
2023-04-29T23:34:03.236Z,2.17
2023-04-29T23:36:30.006Z,2.20
2023-04-29T23:38:56.668Z,1.90
2023-04-29T23:41:23.366Z,2.20
2023-04-29T23:43:49.981Z,1.65
2023-04-29T23:46:16.734Z,2.35
2023-04-29T23:48:43.423Z,2.00
2023-04-29T23:51:10.135Z,2.10
2023-04-29T23:53:38.579Z,2.00
2023-04-29T23:56:05.974Z,2.08
2023-04-29T23:58:32.653Z,2.10
